Accueil
METAR-TAF:

METAR-TAF

Aéroports :

Le Helder, Pays-Bas

latitude: 52-55N, longitude: 004-47E, altitude: 0 m

Observation

Le bulletin a été fait il y a 12 minutes, à 12:25 UTC
Vent 8 kt de sud-ouest, variant entre sud/sud-ouest et ouest/nord-ouest
Température 23°C
Humidité 65%
Pression 1018 hPa
Visibilité 10 km ou plus
Ciel couvert à une hauteur de 23000 ft
Quelques nuages à une hauteur de 2000 ft

METAR: EHKD 181225Z AUTO 25012KT 210V290 9999 OVC230 23/16 Q1018 BLU 22008KT 9999 FEW020

Heure: 14:37 (12:37 UTC)

Prévision

Le bulletin a été fait il y a 4 heures et 34 minutes, à 08:03 UTC
Prévision valable du 18 à 09 UTC au 18 à 21 UTC
Vent 10 kt de sud-ouest
Visibilité 10 km ou plus
Quelques nuages à une hauteur de 2000 ft
Evoluant progressivement
du 18 à 13 UTC au 18 à 16 UTC
Vent 7 kt de nord-ouest

TAF: EHKD 180803Z 1809/1821 22010KT 9999 FEW020 BECMG 1813/1816 32007KT

Observations et prévisions météorologiques de plus de 4000 aéroports (messages METAR et TAF).

Les stations disponibles sont représentées par des disques jaunes et rouges sur la carte.

Passer la souris dessus pour voir le nom de la station.

Cliquer dessus pour voir les observations et prévisions météorologiques.

Pour changer de carte: cliquez sur les boutons verts avec une croix noire pour zoomer, sur le bouton vert avec un tiret pour effectuer un zoom arrière, ou sur les flèches vertes pour les cartes adjacentes.


METAR-TAF: